Time;durP1;ratioP1;P1;durP2;ratioP2;P2;SDS_P1;SDS_P2;PMS_P1;PMS_P2;Temp;Humidity;BMP_temperature;BMP_pressure;BME280_temperature;BME280_humidity;BME280_pressure;Samples;Min_cycle;Max_cycle;Signal;HPM_P1;HPM_P2
2023/01/28 00:01:39;;;;;;;11.38;8.27;;;1.70;99.90;;;;;;4989592;28;20053;-61
2023/01/28 00:04:05;;;;;;;7.50;6.57;;;1.70;99.90;;;;;;4991120;28;20041;-60
2023/01/28 00:06:31;;;;;;;10.65;7.53;;;1.70;99.90;;;;;;4993336;28;20449;-61
2023/01/28 00:08:56;;;;;;;9.38;7.65;;;1.80;99.90;;;;;;4995577;28;20026;-59
2023/01/28 00:11:22;;;;;;;16.25;8.95;;;1.80;99.90;;;;;;4991465;28;20041;-60
2023/01/28 00:13:52;;;;;;;11.55;7.95;;;1.80;99.90;;;;;;4994387;28;20738;-60
2023/01/28 00:16:17;;;;;;;12.10;7.85;;;1.70;99.90;;;;;;4990509;28;20465;-59
2023/01/28 00:18:43;;;;;;;11.02;8.85;;;1.70;99.90;;;;;;4993170;28;20030;-59
2023/01/28 00:21:11;;;;;;;14.52;8.57;;;1.70;99.90;;;;;;4984277;28;20044;-61
2023/01/28 00:23:38;;;;;;;10.50;5.97;;;1.60;99.90;;;;;;4996472;28;20037;-60
2023/01/28 00:26:11;;;;;;;10.82;8.60;;;1.60;99.90;;;;;;4993877;28;20046;-60
2023/01/28 00:28:37;;;;;;;14.13;9.10;;;1.60;99.90;;;;;;4997420;28;20109;-59
2023/01/28 00:31:12;;;;;;;11.50;8.52;;;1.60;99.90;;;;;;4995971;28;20152;-60
2023/01/28 00:33:37;;;;;;;11.48;8.40;;;1.60;99.90;;;;;;4992305;28;20042;-60
2023/01/28 00:36:05;;;;;;;12.77;9.27;;;1.50;99.90;;;;;;4994042;28;20448;-59
2023/01/28 00:38:31;;;;;;;11.80;9.32;;;1.60;99.90;;;;;;4986916;28;20465;-61
2023/01/28 00:41:13;;;;;;;14.57;9.77;;;1.50;99.90;;;;;;4989696;28;20030;-60
2023/01/28 00:43:40;;;;;;;13.65;10.98;;;1.60;99.90;;;;;;4993858;28;20018;-60
2023/01/28 00:46:07;;;;;;;17.45;10.00;;;1.50;99.90;;;;;;4994049;28;20110;-60
2023/01/28 00:48:34;;;;;;;17.85;12.38;;;1.50;99.90;;;;;;5004950;28;20023;-60
2023/01/28 00:50:59;;;;;;;22.52;12.32;;;1.50;99.90;;;;;;5001920;28;20048;-60
2023/01/28 00:53:25;;;;;;;46.63;17.92;;;1.50;99.90;;;;;;5001479;28;20502;-59
2023/01/28 00:55:51;;;;;;;21.80;12.65;;;1.50;99.90;;;;;;5002751;28;20035;-60
2023/01/28 00:58:17;;;;;;;27.50;15.00;;;1.50;99.90;;;;;;4991797;28;20025;-60
2023/01/28 01:00:43;;;;;;;17.17;11.80;;;1.50;99.90;;;;;;4991843;28;20026;-60
2023/01/28 01:03:09;;;;;;;14.32;9.82;;;1.50;99.90;;;;;;4993324;28;20733;-60
2023/01/28 01:05:35;;;;;;;50.28;19.60;;;1.50;99.90;;;;;;4996221;28;20536;-61
2023/01/28 01:08:00;;;;;;;42.55;18.63;;;1.50;99.90;;;;;;4997229;28;20163;-59
2023/01/28 01:10:26;;;;;;;35.88;15.27;;;1.50;99.90;;;;;;4996643;28;20026;-61
2023/01/28 01:12:51;;;;;;;38.90;18.20;;;1.50;99.90;;;;;;4997338;28;20037;-60
2023/01/28 01:15:18;;;;;;;18.52;11.70;;;1.50;99.90;;;;;;4997577;28;20019;-59
2023/01/28 01:17:47;;;;;;;42.92;18.33;;;1.50;99.90;;;;;;4999727;28;20084;-60
2023/01/28 01:20:21;;;;;;;14.48;11.35;;;1.50;99.90;;;;;;4999083;28;20270;-58
2023/01/28 01:22:47;;;;;;;25.13;13.55;;;1.50;99.90;;;;;;4989513;28;20032;-60
2023/01/28 01:25:14;;;;;;;83.43;27.90;;;1.50;99.90;;;;;;4994029;28;20022;-63
2023/01/28 01:27:41;;;;;;;57.25;25.13;;;1.50;99.90;;;;;;4996672;28;20444;-60
2023/01/28 01:30:08;;;;;;;26.88;15.15;;;1.50;99.90;;;;;;4996860;28;20045;-59
2023/01/28 01:32:34;;;;;;;36.35;17.88;;;1.50;99.90;;;;;;4997291;28;20072;-60
2023/01/28 01:35:01;;;;;;;24.30;12.57;;;1.50;99.90;;;;;;4998406;28;20371;-60
2023/01/28 01:37:27;;;;;;;49.30;18.55;;;1.50;99.90;;;;;;4998789;28;20024;-60
2023/01/28 01:39:53;;;;;;;78.72;28.85;;;1.50;99.90;;;;;;4989344;28;20489;-60
2023/01/28 01:42:19;;;;;;;52.85;18.88;;;1.50;99.90;;;;;;4983248;28;20158;-60
2023/01/28 01:44:58;;;;;;;14.18;9.30;;;1.60;99.90;;;;;;4983174;28;20041;-60
2023/01/28 01:47:39;;;;;;;15.13;10.50;;;1.60;99.90;;;;;;4990119;28;20039;-60
2023/01/28 01:50:21;;;;;;;38.95;16.20;;;1.50;99.90;;;;;;4987813;28;20067;-59
2023/01/28 01:52:51;;;;;;;16.65;11.30;;;1.50;99.90;;;;;;4986963;28;20125;-60
2023/01/28 01:55:20;;;;;;;13.43;9.18;;;1.50;99.90;;;;;;4988659;28;20038;-59
2023/01/28 01:57:49;;;;;;;13.52;9.05;;;1.60;99.90;;;;;;4992727;28;20056;-59
2023/01/28 02:00:15;;;;;;;14.45;10.10;;;1.60;99.90;;;;;;4993802;28;20038;-59
2023/01/28 02:02:44;;;;;;;13.13;9.52;;;1.60;99.90;;;;;;4996016;28;20592;-59
2023/01/28 02:05:13;;;;;;;19.30;10.73;;;1.60;99.90;;;;;;4995361;28;20056;-59
2023/01/28 02:07:39;;;;;;;30.35;12.77;;;1.60;99.90;;;;;;5001105;28;20033;-59
2023/01/28 02:10:06;;;;;;;17.88;9.80;;;1.70;99.90;;;;;;4998185;28;20044;-59
2023/01/28 02:12:46;;;;;;;25.88;11.70;;;1.60;99.90;;;;;;4997619;28;20027;-59
2023/01/28 02:15:16;;;;;;;17.20;10.15;;;1.60;99.90;;;;;;4993531;28;20061;-60
2023/01/28 02:17:41;;;;;;;13.48;8.40;;;1.60;99.90;;;;;;4999426;28;20026;-59
2023/01/28 02:20:49;;;;;;;26.35;13.50;;;1.60;99.90;;;;;;4997897;28;20830;-59
2023/01/28 02:23:23;;;;;;;48.13;18.17;;;1.60;99.90;;;;;;4991316;28;20423;-59
2023/01/28 02:26:18;;;;;;;20.63;10.85;;;1.60;99.90;;;;;;4997857;28;20093;-60
2023/01/28 02:29:08;;;;;;;22.75;12.40;;;1.60;99.90;;;;;;4994844;28;20025;-59
2023/01/28 02:31:57;;;;;;;28.70;12.32;;;1.70;99.90;;;;;;4995369;28;20033;-60
2023/01/28 02:34:45;;;;;;;12.48;8.35;;;1.60;99.90;;;;;;4996049;28;20406;-60
2023/01/28 02:37:22;;;;;;;16.48;10.18;;;1.60;99.90;;;;;;4993553;28;20077;-61
2023/01/28 02:39:53;;;;;;;14.13;9.07;;;1.60;99.90;;;;;;4997288;28;20033;-60
2023/01/28 02:42:21;;;;;;;;;;;1.60;99.90;;;;;;4999875;28;20040;-60
2023/01/28 02:44:47;;;;;;;11.70;8.02;;;1.60;99.90;;;;;;5006358;28;19957;-61
2023/01/28 02:50:02;;;;;;;11.32;7.60;;;1.60;99.90;;;;;;4992495;28;20072;-59
2023/01/28 02:55:38;;;;;;;13.38;9.10;;;1.60;99.90;;;;;;4982250;28;20065;-58
2023/01/28 02:58:17;;;;;;;11.82;8.95;;;1.60;99.90;;;;;;4992129;28;20034;-60
2023/01/28 03:01:00;;;;;;;12.32;9.18;;;1.60;99.90;;;;;;4994253;28;20076;-60
2023/01/28 03:03:37;;;;;;;14.90;9.27;;;1.60;99.90;;;;;;4995607;28;20133;-59
2023/01/28 03:06:16;;;;;;;14.15;8.82;;;1.60;99.90;;;;;;4988166;28;20073;-59
2023/01/28 03:09:23;;;;;;;17.38;9.82;;;1.50;99.90;;;;;;4995420;28;20031;-58
2023/01/28 03:37:28;;;;;;;13.68;7.15;;;1.60;99.90;;;;;;5000580;28;20041;-58
2023/01/28 03:39:57;;;;;;;10.02;7.82;;;1.60;99.90;;;;;;4991356;28;20529;-59
2023/01/28 03:42:22;;;;;;;9.35;7.57;;;1.60;99.90;;;;;;4997493;28;20068;-59
2023/01/28 03:44:51;;;;;;;11.95;8.15;;;1.60;99.90;;;;;;4996984;28;20030;-58
2023/01/28 03:47:26;;;;;;;10.88;7.85;;;1.60;99.90;;;;;;5000193;28;20049;-58
2023/01/28 03:49:54;;;;;;;10.60;8.38;;;1.60;99.90;;;;;;4995278;28;20068;-58
2023/01/28 03:52:25;;;;;;;12.60;8.25;;;1.60;99.90;;;;;;4997591;28;20031;-58
2023/01/28 03:54:51;;;;;;;;;;;1.60;99.90;;;;;;4993436;28;20133;-58
2023/01/28 03:57:19;;;;;;;15.77;9.32;;;1.60;99.90;;;;;;4995726;28;19913;-58
2023/01/28 03:59:45;;;;;;;16.38;9.20;;;1.60;99.90;;;;;;4998064;28;20741;-59
2023/01/28 04:02:11;;;;;;;7.80;6.05;;;1.60;99.90;;;;;;5001043;28;20071;-59
2023/01/28 04:04:38;;;;;;;7.20;5.55;;;1.60;99.90;;;;;;5000486;28;20389;-59
2023/01/28 04:07:07;;;;;;;6.00;4.45;;;1.50;99.90;;;;;;5001302;28;20057;-57
2023/01/28 04:09:33;;;;;;;6.03;4.50;;;1.50;99.90;;;;;;5000909;28;20022;-59
2023/01/28 04:11:59;;;;;;;6.05;4.18;;;1.50;99.90;;;;;;4999811;28;20552;-58
2023/01/28 04:14:25;;;;;;;6.40;4.82;;;1.50;99.90;;;;;;4998742;28;20130;-57
2023/01/28 04:16:51;;;;;;;4.65;4.13;;;1.50;99.90;;;;;;4993881;28;20026;-58
2023/01/28 04:19:16;;;;;;;6.10;4.95;;;1.50;99.90;;;;;;4996149;28;20481;-58
2023/01/28 04:21:42;;;;;;;4.60;4.07;;;1.40;99.90;;;;;;4997537;28;20029;-58
2023/01/28 04:24:08;;;;;;;4.97;4.45;;;1.40;99.90;;;;;;4998540;28;20037;-58
2023/01/28 04:26:34;;;;;;;4.28;3.50;;;1.40;99.90;;;;;;5000524;28;20034;-57
2023/01/28 04:28:59;;;;;;;4.25;3.70;;;1.40;99.90;;;;;;4997410;28;20065;-59
2023/01/28 04:31:25;;;;;;;4.05;2.90;;;1.40;99.90;;;;;;4973318;28;20023;-58
2023/01/28 04:33:50;;;;;;;5.18;3.55;;;1.40;99.90;;;;;;4965791;28;20039;-59
2023/01/28 04:36:16;;;;;;;3.65;3.35;;;1.40;99.90;;;;;;4976215;28;20027;-58
2023/01/28 04:38:42;;;;;;;4.15;3.65;;;1.40;99.90;;;;;;4982139;28;20076;-58
2023/01/28 04:41:07;;;;;;;3.65;3.05;;;1.50;99.90;;;;;;4992380;28;20046;-58
2023/01/28 04:43:33;;;;;;;4.28;3.10;;;1.50;99.90;;;;;;4994898;28;20496;-58
2023/01/28 04:45:59;;;;;;;3.22;2.92;;;1.50;99.90;;;;;;4993757;28;20038;-57
2023/01/28 04:48:24;;;;;;;3.70;2.78;;;1.50;99.90;;;;;;4988847;28;20038;-58
2023/01/28 04:50:50;;;;;;;3.20;2.65;;;1.50;99.90;;;;;;4994965;28;20029;-58
2023/01/28 04:53:16;;;;;;;3.65;3.17;;;1.50;99.90;;;;;;4997376;28;20057;-59
2023/01/28 04:55:44;;;;;;;3.88;3.08;;;1.50;99.90;;;;;;5000062;28;20022;-58
2023/01/28 04:58:09;;;;;;;4.28;3.58;;;1.40;99.90;;;;;;5000750;28;20019;-58
2023/01/28 05:00:35;;;;;;;3.55;3.00;;;1.40;99.90;;;;;;4999467;28;20490;-59
2023/01/28 05:03:01;;;;;;;4.75;3.53;;;1.40;99.90;;;;;;5003639;28;20387;-57
2023/01/28 05:05:26;;;;;;;4.15;3.45;;;1.40;99.90;;;;;;4997127;28;20069;-59
2023/01/28 05:07:54;;;;;;;4.25;3.53;;;1.40;99.90;;;;;;4995837;28;20537;-59
2023/01/28 05:10:20;;;;;;;4.75;3.58;;;1.40;99.90;;;;;;4995618;28;20116;-59
2023/01/28 05:12:46;;;;;;;6.00;3.70;;;1.40;99.90;;;;;;4998796;28;20533;-58
2023/01/28 05:15:12;;;;;;;4.20;3.10;;;1.40;99.90;;;;;;4993369;28;20124;-59
2023/01/28 05:17:38;;;;;;;3.72;2.97;;;1.30;99.90;;;;;;4991785;28;20170;-58
2023/01/28 05:20:04;;;;;;;4.78;3.65;;;1.40;99.90;;;;;;4988898;28;20040;-58
2023/01/28 05:22:30;;;;;;;6.55;3.63;;;1.40;99.90;;;;;;4998897;28;20026;-57
2023/01/28 05:24:56;;;;;;;4.43;3.28;;;1.40;99.90;;;;;;4999196;28;20033;-58
2023/01/28 05:27:22;;;;;;;4.82;2.97;;;1.40;99.90;;;;;;4996365;28;20756;-59
2023/01/28 05:29:47;;;;;;;4.28;3.17;;;1.40;99.90;;;;;;4985047;28;20504;-58
2023/01/28 05:32:13;;;;;;;4.00;3.17;;;1.40;99.90;;;;;;4971657;28;20023;-58
2023/01/28 05:34:38;;;;;;;4.78;3.10;;;1.40;99.90;;;;;;4982462;28;20548;-58
2023/01/28 05:37:04;;;;;;;3.38;2.72;;;1.30;99.90;;;;;;4977240;28;20081;-58
2023/01/28 05:39:30;;;;;;;4.28;3.08;;;1.40;99.90;;;;;;4979354;28;20077;-58
2023/01/28 05:41:56;;;;;;;3.65;2.92;;;1.40;99.90;;;;;;4980836;28;20027;-58
2023/01/28 05:44:22;;;;;;;4.55;3.05;;;1.40;99.90;;;;;;4972202;28;20042;-59
2023/01/28 05:46:47;;;;;;;3.25;2.95;;;1.40;99.90;;;;;;4969185;28;20032;-59
2023/01/28 05:49:13;;;;;;;3.70;2.80;;;1.30;99.90;;;;;;4966308;28;20076;-57
2023/01/28 05:51:39;;;;;;;4.20;3.05;;;1.30;99.90;;;;;;4965481;28;20534;-58
2023/01/28 05:54:08;;;;;;;9.13;4.95;;;1.40;99.90;;;;;;4969013;28;20523;-58
2023/01/28 05:56:35;;;;;;;3.97;3.25;;;1.40;99.90;;;;;;4971875;28;20041;-58
2023/01/28 05:59:02;;;;;;;7.65;3.22;;;1.40;99.90;;;;;;4972296;28;20558;-57
2023/01/28 06:01:28;;;;;;;4.43;3.03;;;1.40;99.90;;;;;;4978409;28;20056;-60
2023/01/28 06:03:53;;;;;;;4.80;2.83;;;1.40;99.90;;;;;;4977562;28;20118;-57
2023/01/28 06:06:19;;;;;;;4.05;2.40;;;1.40;99.90;;;;;;4974932;28;20051;-57
2023/01/28 06:08:45;;;;;;;3.10;2.58;;;1.40;99.90;;;;;;4982383;28;20030;-58
2023/01/28 06:11:11;;;;;;;3.78;3.05;;;1.40;99.90;;;;;;4983508;28;20160;-58
2023/01/28 06:13:36;;;;;;;6.45;3.88;;;1.40;99.90;;;;;;4974264;28;20105;-58
2023/01/28 06:16:02;;;;;;;4.55;3.45;;;1.40;99.90;;;;;;4978876;28;20022;-58
2023/01/28 06:18:28;;;;;;;6.43;4.03;;;1.40;99.90;;;;;;4982350;28;20515;-58
2023/01/28 06:20:54;;;;;;;4.40;3.30;;;1.50;99.90;;;;;;4986054;28;20053;-58
2023/01/28 06:23:19;;;;;;;4.43;3.47;;;1.40;99.90;;;;;;4986141;28;20038;-57
2023/01/28 06:25:45;;;;;;;3.35;3.05;;;1.40;99.90;;;;;;4983010;28;20038;-58
2023/01/28 06:28:11;;;;;;;7.95;4.80;;;1.40;99.90;;;;;;4983942;28;20020;-58
2023/01/28 06:30:36;;;;;;;5.63;3.80;;;1.50;99.90;;;;;;4979690;28;20042;-57
2023/01/28 06:33:02;;;;;;;4.70;2.58;;;1.40;99.90;;;;;;4975203;28;20423;-58
2023/01/28 06:35:27;;;;;;;3.30;2.80;;;1.40;99.90;;;;;;4973626;28;20027;-58
2023/01/28 06:37:53;;;;;;;5.28;3.25;;;1.40;99.90;;;;;;4973865;28;20069;-58
2023/01/28 06:40:21;;;;;;;4.72;2.55;;;1.50;99.90;;;;;;4985803;28;20031;-58
2023/01/28 06:42:47;;;;;;;7.13;5.43;;;1.40;99.90;;;;;;4980851;28;20030;-59
2023/01/28 06:45:13;;;;;;;7.75;3.50;;;1.40;99.90;;;;;;4981416;28;20579;-59
2023/01/28 06:47:39;;;;;;;5.40;3.97;;;1.40;99.90;;;;;;4976252;28;20137;-58
2023/01/28 06:50:06;;;;;;;7.95;5.28;;;1.40;99.90;;;;;;4980152;28;20034;-58
2023/01/28 06:52:31;;;;;;;3.40;1.98;;;1.40;99.90;;;;;;4984833;28;20034;-61
2023/01/28 06:54:57;;;;;;;3.63;2.78;;;1.40;99.90;;;;;;5000725;28;20034;-58
2023/01/28 06:57:23;;;;;;;12.30;5.25;;;1.40;99.90;;;;;;4997109;28;20032;-59
2023/01/28 06:59:48;;;;;;;2.85;1.95;;;1.50;99.90;;;;;;4999736;28;20026;-59
2023/01/28 07:02:14;;;;;;;2.92;1.67;;;1.40;99.90;;;;;;5001192;28;20793;-62
2023/01/28 07:04:39;;;;;;;2.80;1.67;;;1.40;99.90;;;;;;4997678;28;20050;-58
2023/01/28 07:07:05;;;;;;;9.75;5.20;;;1.40;99.90;;;;;;5002706;28;20042;-58
2023/01/28 07:09:31;;;;;;;1.85;1.48;;;1.40;99.90;;;;;;4999499;28;20031;-59
2023/01/28 07:11:57;;;;;;;4.57;2.30;;;1.40;99.90;;;;;;4998035;28;20018;-59
2023/01/28 07:14:22;;;;;;;3.58;2.03;;;1.40;99.90;;;;;;4999726;28;20056;-59
2023/01/28 07:16:48;;;;;;;14.60;9.77;;;1.40;99.90;;;;;;4996966;28;20137;-60
2023/01/28 07:19:13;;;;;;;17.88;12.88;;;1.40;99.90;;;;;;5011359;28;20634;-59
2023/01/28 07:21:39;;;;;;;10.27;8.20;;;1.30;99.90;;;;;;4997207;28;20035;-59
2023/01/28 07:24:05;;;;;;;30.20;19.23;;;1.30;99.90;;;;;;4995166;28;20073;-58
2023/01/28 07:26:31;;;;;;;4.72;4.22;;;1.30;99.90;;;;;;4991713;28;20528;-59
2023/01/28 07:28:56;;;;;;;5.47;3.30;;;1.40;99.90;;;;;;4991785;28;20050;-59
2023/01/28 07:31:22;;;;;;;3.83;3.45;;;1.40;99.90;;;;;;4990755;28;20054;-58
2023/01/28 07:33:48;;;;;;;2.88;1.98;;;1.40;99.90;;;;;;4993528;28;20033;-60
2023/01/28 07:36:13;;;;;;;1.92;1.30;;;1.40;99.90;;;;;;4994976;28;20079;-59
2023/01/28 07:38:39;;;;;;;2.80;1.70;;;1.40;99.90;;;;;;5001015;28;20041;-58
2023/01/28 07:41:04;;;;;;;8.13;3.47;;;1.30;99.90;;;;;;4999275;28;20021;-58
2023/01/28 07:43:30;;;;;;;4.85;2.00;;;1.40;99.90;;;;;;5000794;28;20105;-58
2023/01/28 07:46:00;;;;;;;3.67;2.50;;;1.30;99.90;;;;;;4997890;28;20049;-59
2023/01/28 07:48:26;;;;;;;3.95;2.15;;;1.40;99.90;;;;;;4992986;28;20034;-58
2023/01/28 07:50:51;;;;;;;2.85;1.50;;;1.30;99.90;;;;;;4995333;28;20033;-57
2023/01/28 07:53:17;;;;;;;2.33;1.80;;;1.30;99.90;;;;;;4993398;28;20039;-58
2023/01/28 07:55:43;;;;;;;2.70;1.55;;;1.30;99.90;;;;;;4981302;28;20026;-58
2023/01/28 07:58:10;;;;;;;3.60;1.90;;;1.30;99.90;;;;;;4981144;28;20771;-58
2023/01/28 08:00:37;;;;;;;4.53;2.30;;;1.20;99.90;;;;;;4977151;28;20057;-59
2023/01/28 08:03:12;;;;;;;2.60;1.90;;;1.20;99.90;;;;;;4975598;28;20779;-58
2023/01/28 08:05:47;;;;;;;3.40;3.03;;;1.20;99.90;;;;;;4976786;28;20042;-58
2023/01/28 08:08:13;;;;;;;2.05;1.35;;;1.20;99.90;;;;;;4977324;28;20031;-59
2023/01/28 08:10:40;;;;;;;3.10;2.10;;;1.20;99.90;;;;;;4975227;28;20054;-58
2023/01/28 08:13:06;;;;;;;1.80;1.65;;;1.20;99.90;;;;;;4972964;28;20530;-59
2023/01/28 08:15:32;;;;;;;3.00;2.05;;;1.20;99.90;;;;;;4970905;28;20047;-58
2023/01/28 08:17:59;;;;;;;5.95;1.60;;;1.20;99.90;;;;;;4978692;28;20026;-58
2023/01/28 08:20:27;;;;;;;2.53;1.52;;;1.20;99.90;;;;;;4982686;28;20034;-57
2023/01/28 08:22:52;;;;;;;2.90;1.80;;;1.20;99.90;;;;;;4970821;28;20041;-59
2023/01/28 08:25:19;;;;;;;2.47;1.88;;;1.20;99.90;;;;;;4978158;28;20173;-59
2023/01/28 08:27:44;;;;;;;4.72;1.33;;;1.20;99.90;;;;;;4982171;28;20034;-58
2023/01/28 08:30:10;;;;;;;2.13;1.60;;;1.20;99.90;;;;;;4979123;28;20518;-58
2023/01/28 08:32:37;;;;;;;2.45;1.52;;;1.10;99.90;;;;;;4964553;28;20023;-58
2023/01/28 08:35:03;;;;;;;3.40;2.42;;;1.10;99.90;;;;;;4982952;28;20014;-59
2023/01/28 08:37:29;;;;;;;1.77;1.25;;;1.10;99.90;;;;;;4976385;28;20372;-58
2023/01/28 08:39:54;;;;;;;3.10;2.55;;;1.10;99.90;;;;;;4971112;28;20045;-59
2023/01/28 08:42:20;;;;;;;1.55;1.30;;;1.10;99.90;;;;;;4972117;28;20319;-59
2023/01/28 08:44:47;;;;;;;2.58;1.80;;;1.20;99.90;;;;;;4967950;28;20496;-59
2023/01/28 08:47:13;;;;;;;2.90;1.60;;;1.20;99.90;;;;;;4967248;28;20384;-58
2023/01/28 08:49:39;;;;;;;2.67;1.83;;;1.20;99.90;;;;;;4976972;28;20201;-59
2023/01/28 08:52:04;;;;;;;3.28;1.80;;;1.20;99.90;;;;;;4974777;28;20077;-58
2023/01/28 08:54:30;;;;;;;4.32;2.58;;;1.30;99.90;;;;;;4975045;28;20046;-60
2023/01/28 08:56:55;;;;;;;7.00;5.22;;;1.30;99.90;;;;;;4980858;28;20030;-59
2023/01/28 08:59:21;;;;;;;5.78;4.30;;;1.30;99.90;;;;;;4991178;28;20035;-59
2023/01/28 09:01:47;;;;;;;9.05;6.28;;;1.40;99.90;;;;;;4997255;28;20034;-59
2023/01/28 09:04:12;;;;;;;6.97;5.68;;;1.40;99.90;;;;;;5000896;28;20157;-59
2023/01/28 09:06:38;;;;;;;7.13;6.43;;;1.40;99.90;;;;;;4991584;28;20510;-60
2023/01/28 09:09:03;;;;;;;5.40;4.05;;;1.40;99.90;;;;;;4973212;28;20031;-58
2023/01/28 09:11:29;;;;;;;4.13;3.08;;;1.50;99.90;;;;;;4993643;28;20506;-59
2023/01/28 09:13:58;;;;;;;3.83;2.70;;;1.50;99.90;;;;;;4992593;28;20026;-58
2023/01/28 09:16:24;;;;;;;3.35;3.00;;;1.50;99.90;;;;;;4996977;28;20109;-58
2023/01/28 09:18:50;;;;;;;3.63;3.03;;;1.50;99.90;;;;;;4996129;28;20037;-58
2023/01/28 09:21:16;;;;;;;4.28;3.35;;;1.60;99.90;;;;;;4993862;28;20052;-59
2023/01/28 09:23:42;;;;;;;7.63;4.35;;;1.50;99.90;;;;;;4991078;28;20038;-59
2023/01/28 09:26:08;;;;;;;3.53;2.75;;;1.40;99.90;;;;;;4990849;28;20042;-58
2023/01/28 09:28:34;;;;;;;3.92;3.63;;;1.40;99.90;;;;;;4989548;28;20022;-58
2023/01/28 09:31:04;;;;;;;4.18;3.15;;;1.30;99.90;;;;;;4988585;28;20049;-59
2023/01/28 09:33:31;;;;;;;8.77;6.20;;;1.30;99.90;;;;;;4991061;28;20034;-58
2023/01/28 09:35:59;;;;;;;4.28;2.97;;;1.30;99.90;;;;;;4993416;28;20030;-58
2023/01/28 09:38:25;;;;;;;2.80;2.00;;;1.40;99.90;;;;;;4994867;28;20112;-58
2023/01/28 09:40:51;;;;;;;2.33;1.80;;;1.40;99.90;;;;;;4992928;28;20069;-58
2023/01/28 09:43:28;;;;;;;4.07;2.25;;;1.30;99.90;;;;;;4999978;28;20028;-58
2023/01/28 09:46:03;;;;;;;2.95;2.38;;;1.30;99.90;;;;;;4997942;28;20037;-59
2023/01/28 09:48:43;;;;;;;4.70;3.30;;;1.40;99.90;;;;;;4998065;28;20034;-59
2023/01/28 09:51:25;;;;;;;4.90;2.60;;;1.40;99.90;;;;;;4997032;28;20035;-58
2023/01/28 09:53:54;;;;;;;3.15;2.10;;;1.50;99.90;;;;;;4999458;28;20026;-58
2023/01/28 09:56:30;;;;;;;2.90;2.50;;;1.50;99.90;;;;;;4999877;28;20058;-59
2023/01/28 09:59:03;;;;;;;3.60;2.20;;;1.60;99.90;;;;;;4999676;28;20049;-59
2023/01/28 10:01:43;;;;;;;3.10;1.83;;;1.60;99.90;;;;;;5001190;28;20117;-59
2023/01/28 10:04:11;;;;;;;4.03;1.90;;;1.60;99.90;;;;;;4996975;28;20038;-58
2023/01/28 10:07:16;;;;;;;2.95;1.58;;;1.50;99.90;;;;;;4995905;28;20089;-59
2023/01/28 10:09:55;;;;;;;3.88;2.03;;;1.50;99.90;;;;;;4994280;28;20049;-58
2023/01/28 10:12:32;;;;;;;4.50;2.45;;;1.40;99.90;;;;;;4989141;28;20512;-59
2023/01/28 10:15:20;;;;;;;4.80;3.88;;;1.50;99.90;;;;;;4988476;28;20026;-58
2023/01/28 10:18:02;;;;;;;3.45;2.50;;;1.50;99.90;;;;;;4990536;28;20851;-58
2023/01/28 10:21:18;;;;;;;2.80;2.35;;;1.40;99.90;;;;;;4992037;28;20169;-57
2023/01/28 10:24:05;;;;;;;4.03;3.10;;;1.50;99.90;;;;;;5004152;28;20129;-56
2023/01/28 10:26:35;;;;;;;4.82;2.80;;;1.60;99.90;;;;;;4996479;28;20053;-58
2023/01/28 10:29:24;;;;;;;3.72;2.30;;;1.60;99.90;;;;;;4999176;28;20061;-57
2023/01/28 10:31:52;;;;;;;4.32;2.95;;;1.70;99.90;;;;;;4997554;28;20109;-58
2023/01/28 10:34:17;;;;;;;4.30;2.50;;;1.50;99.90;;;;;;4999240;28;20042;-59
2023/01/28 10:36:43;;;;;;;4.78;3.45;;;1.40;99.90;;;;;;4999042;28;20597;-58
2023/01/28 10:39:13;;;;;;;4.53;4.13;;;1.30;99.90;;;;;;4998134;28;20088;-59
2023/01/28 10:41:39;;;;;;;4.80;2.95;;;1.30;99.90;;;;;;4992716;28;20034;-59
2023/01/28 10:44:05;;;;;;;2.92;1.88;;;1.30;99.90;;;;;;4997205;28;20379;-58
2023/01/28 10:46:33;;;;;;;3.78;2.33;;;1.30;99.90;;;;;;5000973;28;20054;-59
2023/01/28 10:49:03;;;;;;;5.13;2.60;;;1.20;99.90;;;;;;4996181;28;20045;-58
2023/01/28 10:51:38;;;;;;;4.40;3.17;;;1.10;99.90;;;;;;4992916;28;20509;-57
2023/01/28 10:54:26;;;;;;;5.00;3.53;;;1.20;99.90;;;;;;4992148;28;20145;-58
2023/01/28 10:57:09;;;;;;;34.03;10.00;;;1.20;99.90;;;;;;4994082;28;20049;-58
2023/01/28 10:59:40;;;;;;;5.70;3.85;;;1.20;99.90;;;;;;4997153;28;20510;-58
2023/01/28 11:02:23;;;;;;;4.43;3.30;;;1.10;99.90;;;;;;4990342;28;20042;-60
2023/01/28 11:05:16;;;;;;;36.83;14.48;;;1.10;99.90;;;;;;4994489;28;20638;-58
2023/01/28 11:07:42;;;;;;;32.42;12.07;;;1.10;99.90;;;;;;4995558;28;20955;-57
2023/01/28 11:10:31;;;;;;;6.30;3.88;;;1.00;99.90;;;;;;4997369;28;20042;-58
2023/01/28 11:13:03;;;;;;;10.02;5.45;;;1.00;99.90;;;;;;5000079;28;20066;-59
2023/01/28 11:15:29;;;;;;;4.93;3.90;;;1.00;99.90;;;;;;4998632;28;20046;-58
2023/01/28 11:18:07;;;;;;;9.85;6.13;;;1.00;99.90;;;;;;4999782;28;20052;-58
2023/01/28 11:20:39;;;;;;;5.70;4.43;;;1.10;99.90;;;;;;4999962;28;20026;-59
2023/01/28 11:23:05;;;;;;;6.38;4.30;;;1.20;99.90;;;;;;4998874;28;20406;-59
2023/01/28 11:25:33;;;;;;;4.57;3.40;;;1.20;99.90;;;;;;4993287;28;20038;-59
2023/01/28 11:28:01;;;;;;;5.53;3.78;;;1.10;99.90;;;;;;4994624;28;20041;-58
2023/01/28 11:30:32;;;;;;;5.13;4.00;;;1.10;99.90;;;;;;4994246;28;20030;-60
2023/01/28 11:33:11;;;;;;;6.45;4.03;;;1.10;99.90;;;;;;4990277;28;20544;-59
2023/01/28 11:35:37;;;;;;;4.05;3.50;;;1.10;99.90;;;;;;4994143;28;20022;-59
2023/01/28 11:38:15;;;;;;;5.18;3.47;;;1.00;99.90;;;;;;4991405;28;20019;-58
2023/01/28 11:40:53;;;;;;;5.68;3.00;;;0.90;99.90;;;;;;4994867;28;20026;-56
2023/01/28 11:43:23;;;;;;;5.68;3.72;;;0.80;99.90;;;;;;5004795;28;20128;-57
2023/01/28 11:46:15;;;;;;;4.93;3.60;;;0.70;99.90;;;;;;4999621;28;20033;-59
2023/01/28 11:48:57;;;;;;;6.72;4.53;;;0.70;99.90;;;;;;4995066;28;20038;-57
2023/01/28 11:51:29;;;;;;;5.85;4.10;;;0.70;99.90;;;;;;4994413;28;20964;-56
2023/01/28 11:54:01;;;;;;;5.03;4.53;;;0.70;99.90;;;;;;4971954;28;20096;-56
2023/01/28 11:56:41;;;;;;;4.45;2.95;;;0.70;99.90;;;;;;4992578;28;20505;-59
2023/01/28 11:59:43;;;;;;;3.97;3.28;;;0.70;99.90;;;;;;4998407;28;20022;-58
2023/01/28 12:02:08;;;;;;;;;;;0.70;99.90;;;;;;4992906;28;20056;-58
2023/01/28 12:04:58;;;;;;;6.43;3.83;;;0.70;99.90;;;;;;4996781;28;19902;-58
2023/01/28 12:08:00;;;;;;;7.97;3.83;;;0.80;99.90;;;;;;4993908;28;20804;-58
2023/01/28 12:10:35;;;;;;;5.13;4.32;;;0.80;99.90;;;;;;4991324;28;20038;-60
2023/01/28 12:13:12;;;;;;;4.60;3.55;;;0.90;99.90;;;;;;4994576;28;20049;-58
2023/01/28 12:16:03;;;;;;;5.45;4.05;;;0.90;99.90;;;;;;4990769;28;20085;-60
2023/01/28 12:19:06;;;;;;;12.23;7.30;;;1.00;99.90;;;;;;4989916;28;20022;-58
2023/01/28 12:21:47;;;;;;;10.45;6.97;;;1.00;99.90;;;;;;4994326;28;20026;-59
2023/01/28 12:24:30;;;;;;;5.47;3.60;;;1.00;99.90;;;;;;5005042;28;20058;-58
2023/01/28 12:27:16;;;;;;;9.30;6.35;;;0.90;99.90;;;;;;4997169;28;20519;-58
2023/01/28 12:30:13;;;;;;;5.85;3.30;;;0.80;99.90;;;;;;4996523;28;20261;-59
2023/01/28 12:32:46;;;;;;;4.30;2.97;;;0.70;99.90;;;;;;5000893;28;20034;-59
2023/01/28 12:35:31;;;;;;;4.65;3.58;;;0.70;99.90;;;;;;4995665;28;20080;-59
2023/01/28 12:38:21;;;;;;;4.55;3.15;;;0.70;99.90;;;;;;4995403;28;20066;-59
2023/01/28 12:41:02;;;;;;;4.13;3.47;;;0.70;99.90;;;;;;4995095;28;20076;-58
2023/01/28 12:43:43;;;;;;;4.85;3.80;;;0.60;99.90;;;;;;5001531;28;20064;-59
2023/01/28 12:46:17;;;;;;;6.07;3.45;;;0.50;99.90;;;;;;5000796;28;20025;-59
2023/01/28 12:48:50;;;;;;;4.57;3.50;;;0.40;99.90;;;;;;4996950;28;20050;-59
2023/01/28 12:51:24;;;;;;;10.68;3.88;;;0.40;99.90;;;;;;4998835;28;20049;-58
2023/01/28 12:54:03;;;;;;;6.82;4.10;;;0.40;99.90;;;;;;4998306;28;20561;-60
2023/01/28 12:56:35;;;;;;;4.95;4.22;;;0.40;99.90;;;;;;5007487;28;20092;-59
2023/01/28 12:59:46;;;;;;;4.30;3.30;;;0.40;99.90;;;;;;4997165;28;20838;-58
2023/01/28 13:02:11;;;;;;;4.95;4.30;;;0.40;99.90;;;;;;4982174;28;20054;-58
2023/01/28 13:04:53;;;;;;;10.38;3.72;;;0.40;99.90;;;;;;4985445;28;20101;-59
2023/01/28 13:07:27;;;;;;;;;;;0.40;99.90;;;;;;4991709;28;20552;-57
2023/01/28 13:10:03;;;;;;;5.72;4.53;;;0.40;99.90;;;;;;4996306;28;19906;-59
2023/01/28 13:12:29;;;;;;;6.05;4.43;;;0.30;99.90;;;;;;5000257;28;20064;-57
2023/01/28 13:14:55;;;;;;;6.78;5.00;;;0.20;99.90;;;;;;4998854;28;20543;-57
2023/01/28 13:17:31;;;;;;;4.72;3.65;;;0.20;99.90;;;;;;4995110;28;20117;-57
2023/01/28 13:19:58;;;;;;;6.25;5.35;;;0.10;99.90;;;;;;4998545;28;20026;-57
2023/01/28 13:22:32;;;;;;;8.45;4.85;;;0.00;99.90;;;;;;4995332;28;20052;-58
2023/01/28 13:25:22;;;;;;;12.43;6.70;;;0.00;99.90;;;;;;4995008;28;20141;-59
2023/01/28 13:28:03;;;;;;;7.68;5.63;;;0.00;99.90;;;;;;4994648;28;20035;-59
2023/01/28 13:30:48;;;;;;;20.17;9.65;;;0.10;99.90;;;;;;4981937;28;20081;-59
2023/01/28 13:33:29;;;;;;;9.85;7.88;;;0.10;99.90;;;;;;4979057;28;20398;-59
2023/01/28 13:35:55;;;;;;;24.60;11.00;;;0.10;99.90;;;;;;4978822;28;20080;-57
2023/01/28 13:38:23;;;;;;;7.47;4.60;;;0.00;99.90;;;;;;4976258;28;20829;-57
2023/01/28 13:40:56;;;;;;;4.88;4.03;;;0.10;99.90;;;;;;4973586;28;20173;-59
2023/01/28 13:43:36;;;;;;;6.55;3.58;;;0.10;99.90;;;;;;4973828;28;20155;-58